Time;durP1;ratioP1;P1;durP2;ratioP2;P2;SDS_P1;SDS_P2;PMS_P1;PMS_P2;Temp;Humidity;BMP_temperature;BMP_pressure;BME280_temperature;BME280_humidity;BME280_pressure;Samples;Min_cycle;Max_cycle;Signal;HPM_P1;HPM_P2
2021/04/30 00:00:52;;;;;;;25.13;19.00;;;8.40;93.20;;;;;;4978141;28;20090;-72
2021/04/30 00:03:19;;;;;;;25.20;18.77;;;8.40;93.10;;;;;;4980071;28;20443;-73
2021/04/30 00:05:45;;;;;;;25.58;19.77;;;8.40;93.10;;;;;;4980264;28;20033;-70
2021/04/30 00:08:14;;;;;;;23.92;18.45;;;8.40;93.10;;;;;;4979555;28;20038;-73
2021/04/30 00:10:40;;;;;;;27.48;20.55;;;8.40;93.10;;;;;;4994717;28;20506;-71
2021/04/30 00:13:06;;;;;;;27.10;20.58;;;8.40;93.10;;;;;;4980101;28;20113;-71
2021/04/30 00:15:32;;;;;;;25.70;19.73;;;8.40;93.40;;;;;;4979866;28;20497;-71
2021/04/30 00:18:03;;;;;;;28.88;20.88;;;8.40;93.30;;;;;;4979144;28;20077;-71
2021/04/30 00:20:29;;;;;;;23.45;18.88;;;8.40;93.20;;;;;;4980115;28;20041;-71
2021/04/30 00:22:55;;;;;;;24.83;19.65;;;8.40;93.40;;;;;;4980841;28;20034;-71
2021/04/30 00:25:24;;;;;;;26.52;20.38;;;8.40;93.30;;;;;;4980577;28;20034;-71
2021/04/30 00:27:49;;;;;;;28.63;20.85;;;8.40;93.40;;;;;;4978883;28;20661;-71
2021/04/30 00:30:16;;;;;;;29.27;21.02;;;8.40;93.70;;;;;;4980886;28;20113;-71
2021/04/30 00:32:42;;;;;;;24.40;18.95;;;8.40;93.40;;;;;;4976707;28;20476;-70
2021/04/30 00:35:08;;;;;;;25.35;19.05;;;8.40;93.50;;;;;;4976624;28;20106;-71
2021/04/30 00:37:37;;;;;;;27.85;20.42;;;8.40;93.50;;;;;;4982471;28;20507;-71
2021/04/30 00:40:08;;;;;;;28.88;21.92;;;8.40;93.30;;;;;;4983653;28;20061;-72
2021/04/30 00:42:34;;;;;;;33.80;22.93;;;8.50;93.20;;;;;;4978805;28;20492;-73
2021/04/30 00:45:02;;;;;;;31.60;22.60;;;8.40;93.20;;;;;;4965749;28;20085;-71
2021/04/30 00:47:29;;;;;;;27.65;21.05;;;8.40;93.50;;;;;;4982319;28;20430;-71
2021/04/30 00:49:55;;;;;;;33.97;21.73;;;8.50;93.30;;;;;;4977564;28;20049;-73
2021/04/30 00:52:21;;;;;;;27.25;21.52;;;8.40;93.40;;;;;;4980290;28;20089;-73
2021/04/30 00:54:47;;;;;;;29.65;22.58;;;8.50;93.30;;;;;;4980529;28;20030;-72
2021/04/30 00:57:14;;;;;;;34.20;23.08;;;8.40;93.50;;;;;;4977412;28;20030;-72
2021/04/30 00:59:40;;;;;;;26.65;20.90;;;8.50;93.40;;;;;;4978770;28;20031;-72
2021/04/30 01:02:06;;;;;;;28.70;23.08;;;8.40;93.50;;;;;;4981896;28;20031;-72
2021/04/30 01:04:32;;;;;;;30.58;23.40;;;8.40;93.50;;;;;;4977903;28;20030;-71
2021/04/30 01:06:58;;;;;;;31.27;23.30;;;8.40;93.40;;;;;;4980241;28;20133;-71
2021/04/30 01:09:23;;;;;;;28.80;22.02;;;8.40;93.40;;;;;;4978222;28;20499;-71
2021/04/30 01:11:50;;;;;;;29.73;23.15;;;8.40;93.40;;;;;;4982077;28;20038;-72
2021/04/30 01:14:17;;;;;;;28.30;21.70;;;8.40;93.40;;;;;;4983410;28;20022;-71
2021/04/30 01:16:43;;;;;;;28.55;22.60;;;8.40;93.30;;;;;;4987189;28;20034;-73
2021/04/30 01:19:09;;;;;;;30.70;22.65;;;8.40;93.30;;;;;;4983302;28;20034;-73
2021/04/30 01:21:35;;;;;;;33.30;23.45;;;8.40;93.40;;;;;;4983254;28;20027;-72
2021/04/30 01:24:02;;;;;;;31.08;23.23;;;8.40;93.30;;;;;;4984522;28;20044;-71
2021/04/30 01:26:27;;;;;;;30.33;23.15;;;8.40;93.20;;;;;;4980330;28;20116;-72
2021/04/30 01:28:53;;;;;;;32.33;23.85;;;8.40;93.30;;;;;;4987383;28;20461;-72
2021/04/30 01:31:19;;;;;;;33.10;24.30;;;8.40;93.30;;;;;;4983091;28;20101;-72
2021/04/30 01:33:53;;;;;;;29.15;22.80;;;8.40;93.30;;;;;;4983115;28;20390;-72
2021/04/30 01:36:18;;;;;;;30.00;23.45;;;8.40;93.30;;;;;;4981779;28;20569;-72
2021/04/30 01:38:44;;;;;;;28.67;21.90;;;8.40;93.30;;;;;;4983521;28;20026;-71
2021/04/30 01:41:10;;;;;;;29.42;22.27;;;8.40;93.40;;;;;;4984097;28;20034;-72
2021/04/30 01:43:36;;;;;;;31.85;23.00;;;8.40;93.40;;;;;;4984882;28;20076;-71
2021/04/30 01:46:06;;;;;;;38.65;23.98;;;8.40;93.30;;;;;;4982142;28;20117;-71
2021/04/30 01:48:34;;;;;;;33.95;22.73;;;8.40;93.30;;;;;;4980103;28;20030;-71
2021/04/30 01:51:01;;;;;;;34.15;25.33;;;8.40;93.30;;;;;;4983146;28;20122;-72
2021/04/30 01:53:29;;;;;;;31.85;23.10;;;8.40;93.20;;;;;;4982990;28;20101;-71
2021/04/30 01:55:56;;;;;;;31.42;24.40;;;8.40;93.20;;;;;;4985608;28;20034;-72
2021/04/30 01:58:22;;;;;;;33.75;24.30;;;8.40;93.20;;;;;;4982219;28;20066;-71
2021/04/30 02:00:49;;;;;;;30.90;21.85;;;8.40;93.10;;;;;;4980815;28;20026;-72
2021/04/30 02:03:15;;;;;;;29.00;21.70;;;8.40;93.10;;;;;;4980577;28;20368;-72
2021/04/30 02:05:41;;;;;;;29.05;20.83;;;8.40;93.20;;;;;;4982681;28;20034;-71
2021/04/30 02:08:11;;;;;;;32.78;23.00;;;8.40;93.30;;;;;;5004528;23;20055;-68
2021/04/30 02:10:38;;;;;;;30.35;23.67;;;8.50;93.30;;;;;;4983959;28;20703;-69
2021/04/30 02:13:05;;;;;;;33.72;24.30;;;8.40;93.00;;;;;;4981907;28;20031;-69
2021/04/30 02:15:33;;;;;;;31.80;22.98;;;8.40;93.00;;;;;;4976790;28;20085;-68
2021/04/30 02:17:59;;;;;;;32.25;23.80;;;8.40;93.00;;;;;;4978440;28;20045;-68
2021/04/30 02:20:25;;;;;;;29.27;21.85;;;8.40;93.00;;;;;;4964815;28;20043;-68
2021/04/30 02:22:52;;;;;;;29.25;22.10;;;8.40;93.10;;;;;;4963537;28;20043;-69
2021/04/30 02:25:19;;;;;;;32.95;24.95;;;8.40;93.10;;;;;;4964517;28;20113;-69
2021/04/30 02:27:46;;;;;;;31.38;23.90;;;8.40;93.10;;;;;;4964350;28;20034;-69
2021/04/30 02:30:15;;;;;;;30.23;21.73;;;8.40;93.00;;;;;;4963893;28;20118;-69
2021/04/30 02:32:41;;;;;;;30.98;23.30;;;8.40;93.10;;;;;;4963669;28;20158;-70
2021/04/30 02:35:12;;;;;;;30.00;23.17;;;8.40;93.10;;;;;;4963644;28;20039;-69
2021/04/30 02:37:38;;;;;;;30.35;23.58;;;8.40;92.90;;;;;;4962992;28;20038;-69
2021/04/30 02:40:10;;;;;;;31.50;22.58;;;8.40;93.00;;;;;;4964969;28;20039;-70
2021/04/30 02:42:35;;;;;;;29.88;22.17;;;8.40;93.10;;;;;;4963331;28;20106;-69
2021/04/30 02:45:03;;;;;;;33.70;24.60;;;8.30;93.10;;;;;;4965549;28;20039;-70
2021/04/30 02:47:31;;;;;;;31.73;22.52;;;8.30;93.10;;;;;;4962589;28;20028;-69
2021/04/30 02:50:04;;;;;;;34.25;23.00;;;8.30;93.20;;;;;;4963771;28;20434;-69
2021/04/30 02:52:30;;;;;;;32.10;23.17;;;8.30;93.20;;;;;;4962095;28;20030;-69
2021/04/30 02:54:56;;;;;;;29.85;22.88;;;8.30;93.10;;;;;;4964026;28;20425;-70
2021/04/30 02:57:22;;;;;;;31.02;22.52;;;8.30;93.00;;;;;;4964246;28;20024;-69
2021/04/30 02:59:48;;;;;;;31.95;23.50;;;8.30;93.10;;;;;;4963680;28;20027;-69
2021/04/30 03:02:14;;;;;;;31.17;22.67;;;8.30;93.10;;;;;;4963664;28;20035;-70
2021/04/30 03:04:41;;;;;;;30.60;22.58;;;8.30;93.20;;;;;;4963421;28;20074;-70
2021/04/30 03:07:07;;;;;;;31.70;22.85;;;8.30;93.20;;;;;;4963648;28;20034;-69
2021/04/30 03:09:33;;;;;;;34.00;25.52;;;8.30;93.30;;;;;;4964686;28;20026;-69
2021/04/30 03:11:59;;;;;;;30.52;22.75;;;8.30;93.20;;;;;;4965319;28;20034;-69
2021/04/30 03:14:25;;;;;;;33.67;24.08;;;8.30;93.30;;;;;;4962847;28;20385;-69
2021/04/30 03:16:51;;;;;;;31.27;23.13;;;8.30;93.30;;;;;;4965244;28;20045;-69
2021/04/30 03:19:17;;;;;;;30.35;22.85;;;8.30;93.30;;;;;;4965068;28;20098;-70
2021/04/30 03:21:42;;;;;;;30.35;23.52;;;8.30;93.30;;;;;;4962773;28;20034;-69
2021/04/30 03:24:09;;;;;;;30.10;23.42;;;8.20;93.20;;;;;;4963108;28;20035;-69
2021/04/30 03:26:35;;;;;;;31.25;22.77;;;8.30;93.20;;;;;;4962849;28;20073;-69
2021/04/30 03:29:02;;;;;;;32.08;22.55;;;8.30;93.30;;;;;;4962824;28;20038;-70
2021/04/30 03:31:27;;;;;;;28.77;21.90;;;8.30;93.20;;;;;;4963381;28;20034;-69
2021/04/30 03:33:53;;;;;;;29.77;19.90;;;8.30;93.30;;;;;;4962704;28;20427;-69
2021/04/30 03:36:20;;;;;;;24.83;19.25;;;8.30;93.30;;;;;;4963064;28;20466;-69
2021/04/30 03:38:47;;;;;;;26.67;20.02;;;8.30;93.40;;;;;;4962153;28;20027;-69
2021/04/30 03:41:13;;;;;;;29.15;21.00;;;8.30;93.20;;;;;;4962729;28;20081;-69
2021/04/30 03:43:39;;;;;;;27.85;21.60;;;8.30;93.20;;;;;;4962210;28;20082;-69
2021/04/30 03:46:04;;;;;;;25.42;19.85;;;8.30;93.10;;;;;;4962604;28;20482;-68
2021/04/30 03:48:31;;;;;;;25.25;19.55;;;8.30;93.10;;;;;;4961703;28;20033;-68
2021/04/30 03:50:57;;;;;;;27.05;20.25;;;8.30;93.20;;;;;;4962138;28;20248;-69
2021/04/30 03:53:24;;;;;;;28.13;20.95;;;8.40;93.20;;;;;;4963317;28;20042;-69
2021/04/30 03:55:50;;;;;;;27.80;21.02;;;8.40;93.10;;;;;;4963220;28;20485;-69
2021/04/30 03:58:16;;;;;;;28.42;22.05;;;8.40;92.90;;;;;;4961968;28;20058;-69
2021/04/30 04:00:42;;;;;;;29.23;22.05;;;8.30;92.90;;;;;;4961297;28;20088;-69
2021/04/30 04:03:08;;;;;;;31.40;23.25;;;8.30;92.90;;;;;;4962178;28;20404;-69
2021/04/30 04:05:33;;;;;;;31.15;23.05;;;8.30;92.80;;;;;;4962054;28;20038;-70
2021/04/30 04:07:59;;;;;;;31.10;23.08;;;8.30;92.70;;;;;;4961908;28;20108;-70
2021/04/30 04:10:25;;;;;;;30.02;22.10;;;8.30;92.80;;;;;;4961706;28;20190;-70
2021/04/30 04:12:51;;;;;;;28.38;21.95;;;8.30;92.90;;;;;;4963080;28;20030;-69
2021/04/30 04:15:17;;;;;;;30.17;22.35;;;8.30;92.80;;;;;;4962686;28;20027;-70
2021/04/30 04:17:43;;;;;;;29.77;22.15;;;8.30;92.90;;;;;;4963221;28;20113;-70
2021/04/30 04:20:10;;;;;;;29.38;21.67;;;8.30;92.90;;;;;;4961274;28;20035;-70
2021/04/30 04:22:35;;;;;;;28.25;20.30;;;8.30;92.90;;;;;;4961772;28;20090;-69
2021/04/30 04:25:01;;;;;;;30.00;22.38;;;8.40;92.90;;;;;;4977868;28;20031;-69
2021/04/30 04:27:27;;;;;;;33.25;24.27;;;8.40;92.90;;;;;;4962903;28;20035;-70
2021/04/30 04:29:53;;;;;;;32.00;23.55;;;8.40;92.70;;;;;;4966422;28;20451;-70
2021/04/30 04:32:18;;;;;;;30.42;22.80;;;8.40;92.60;;;;;;4959249;28;20532;-70
2021/04/30 04:34:44;;;;;;;30.10;23.00;;;8.40;92.70;;;;;;4960747;28;20031;-70
2021/04/30 04:37:10;;;;;;;32.47;23.85;;;8.40;92.90;;;;;;4960974;28;20057;-69
2021/04/30 04:39:36;;;;;;;34.10;23.88;;;8.40;92.60;;;;;;4961737;28;20085;-69
2021/04/30 04:42:06;;;;;;;29.05;22.95;;;8.30;92.50;;;;;;4963615;28;20027;-70
2021/04/30 04:44:32;;;;;;;32.55;22.85;;;8.30;92.60;;;;;;4962006;28;20512;-70
2021/04/30 04:46:58;;;;;;;32.20;24.05;;;8.30;92.60;;;;;;4960990;28;20037;-69
2021/04/30 04:49:24;;;;;;;30.40;23.08;;;8.30;92.60;;;;;;4961009;28;20031;-69
2021/04/30 04:51:49;;;;;;;30.58;22.88;;;8.30;92.60;;;;;;4959617;28;20046;-70
2021/04/30 04:54:15;;;;;;;32.60;23.35;;;8.40;92.50;;;;;;4960953;28;20133;-70
2021/04/30 04:56:41;;;;;;;30.08;22.70;;;8.30;92.40;;;;;;4975853;28;20050;-70
2021/04/30 04:59:07;;;;;;;31.65;23.02;;;8.30;92.40;;;;;;4964668;28;20489;-69
2021/04/30 05:01:33;;;;;;;31.60;22.20;;;8.30;92.50;;;;;;4961463;28;20023;-70
2021/04/30 05:04:01;;;;;;;29.67;21.83;;;8.30;92.50;;;;;;4962427;28;20425;-70
2021/04/30 05:06:27;;;;;;;28.50;21.40;;;8.40;92.70;;;;;;4961036;28;20035;-70
2021/04/30 05:08:53;;;;;;;31.85;23.48;;;8.40;92.70;;;;;;4961302;28;20050;-70
2021/04/30 05:11:18;;;;;;;29.85;21.13;;;8.40;92.60;;;;;;4965058;28;20068;-69
2021/04/30 05:13:44;;;;;;;30.42;22.38;;;8.40;92.60;;;;;;4962681;28;20026;-69
2021/04/30 05:16:12;;;;;;;28.20;20.95;;;8.40;92.60;;;;;;4962154;28;20078;-69
2021/04/30 05:18:38;;;;;;;30.20;22.70;;;8.40;92.60;;;;;;4961143;28;20039;-69
2021/04/30 05:21:04;;;;;;;32.70;23.27;;;8.40;92.50;;;;;;4961892;28;20038;-69
2021/04/30 05:23:30;;;;;;;33.85;22.13;;;8.40;92.30;;;;;;4961908;28;20031;-69
2021/04/30 05:25:56;;;;;;;31.40;23.90;;;8.40;92.40;;;;;;4969785;28;20591;-71
2021/04/30 05:28:21;;;;;;;29.98;23.25;;;8.40;92.50;;;;;;4964882;28;20658;-70
2021/04/30 05:30:47;;;;;;;28.85;21.23;;;8.40;92.50;;;;;;4963093;28;20366;-71
2021/04/30 05:33:13;;;;;;;28.27;21.65;;;8.40;92.90;;;;;;4963323;28;20582;-70
2021/04/30 05:35:39;;;;;;;27.38;20.02;;;8.40;92.90;;;;;;4961355;28;20393;-69
2021/04/30 05:38:05;;;;;;;31.17;22.05;;;8.50;92.90;;;;;;4975340;28;20037;-69
2021/04/30 05:40:32;;;;;;;27.75;20.90;;;8.50;92.70;;;;;;4962409;28;20066;-70
2021/04/30 05:42:58;;;;;;;26.20;19.85;;;8.50;92.80;;;;;;4961979;28;20046;-69
2021/04/30 05:45:24;;;;;;;25.85;19.75;;;8.50;92.70;;;;;;4961951;28;20393;-70
2021/04/30 05:47:49;;;;;;;24.63;19.10;;;8.50;92.80;;;;;;4960279;28;20503;-70
2021/04/30 05:50:15;;;;;;;25.42;19.25;;;8.60;92.70;;;;;;4961072;28;20023;-71
2021/04/30 05:52:41;;;;;;;26.23;20.02;;;8.60;92.50;;;;;;4959812;28;20277;-70
2021/04/30 05:55:08;;;;;;;29.73;21.58;;;8.60;92.50;;;;;;4959791;28;20123;-67
2021/04/30 05:57:35;;;;;;;30.23;20.83;;;8.60;92.10;;;;;;4961682;28;20022;-70
2021/04/30 06:00:01;;;;;;;26.33;19.80;;;8.60;92.00;;;;;;4973319;28;20030;-67
2021/04/30 06:02:27;;;;;;;25.35;19.77;;;8.60;92.20;;;;;;4968313;28;20105;-69
2021/04/30 06:04:53;;;;;;;25.15;19.20;;;8.70;92.20;;;;;;4972165;28;20106;-68
2021/04/30 06:07:19;;;;;;;27.63;20.00;;;8.60;92.20;;;;;;4968696;28;20065;-67
2021/04/30 06:09:45;;;;;;;27.73;20.88;;;8.60;92.50;;;;;;4965089;28;20038;-67
2021/04/30 06:12:11;;;;;;;26.77;21.92;;;8.70;92.60;;;;;;4967522;28;20046;-69
2021/04/30 06:14:37;;;;;;;26.17;20.42;;;8.70;92.10;;;;;;4964726;28;20023;-70
2021/04/30 06:17:03;;;;;;;29.35;22.55;;;8.70;92.20;;;;;;4964862;28;20030;-70
2021/04/30 06:19:29;;;;;;;27.25;21.02;;;8.70;92.00;;;;;;4965573;28;20480;-71
2021/04/30 06:21:54;;;;;;;25.35;19.40;;;8.70;92.10;;;;;;4966000;28;20062;-70
2021/04/30 06:24:20;;;;;;;25.52;18.67;;;8.70;92.00;;;;;;4964314;28;20480;-71
2021/04/30 06:26:49;;;;;;;29.98;21.55;;;8.70;92.00;;;;;;4956616;28;20118;-70
2021/04/30 06:29:15;;;;;;;25.67;19.85;;;8.70;91.90;;;;;;4962821;28;20033;-70
2021/04/30 06:31:42;;;;;;;24.05;18.63;;;8.70;91.80;;;;;;4963267;28;20038;-70
2021/04/30 06:34:08;;;;;;;25.27;18.58;;;8.70;92.00;;;;;;4961233;28;20066;-70
2021/04/30 06:36:35;;;;;;;25.85;19.88;;;8.80;92.40;;;;;;4960678;28;20038;-70
2021/04/30 06:39:00;;;;;;;25.73;18.98;;;8.90;92.30;;;;;;4963489;28;20039;-70
2021/04/30 06:41:27;;;;;;;24.50;19.90;;;8.90;92.60;;;;;;4965226;28;20026;-70
2021/04/30 06:43:53;;;;;;;27.88;19.75;;;8.90;92.30;;;;;;4962418;28;20114;-70
2021/04/30 06:46:23;;;;;;;26.58;19.60;;;8.90;92.20;;;;;;4966234;28;20034;-70
2021/04/30 06:48:50;;;;;;;27.00;20.48;;;8.90;91.80;;;;;;4976302;28;20062;-70
2021/04/30 06:51:19;;;;;;;24.42;19.33;;;8.90;91.40;;;;;;4975926;28;20073;-70
2021/04/30 06:53:45;;;;;;;25.02;19.08;;;8.90;91.90;;;;;;4960224;28;20023;-70
2021/04/30 06:56:11;;;;;;;22.83;18.75;;;9.00;92.30;;;;;;4964760;28;20064;-70
2021/04/30 06:58:36;;;;;;;23.05;17.60;;;9.00;92.00;;;;;;4963626;28;20561;-69
2021/04/30 07:01:03;;;;;;;22.92;17.58;;;9.10;92.00;;;;;;4962235;28;20110;-69
2021/04/30 07:03:29;;;;;;;24.80;19.25;;;9.10;92.00;;;;;;4963652;28;20145;-70
2021/04/30 07:05:55;;;;;;;25.17;18.50;;;9.10;92.60;;;;;;4962999;28;20157;-70
2021/04/30 07:08:20;;;;;;;21.75;15.95;;;9.20;92.00;;;;;;4963353;28;20482;-69
2021/04/30 07:10:46;;;;;;;23.95;17.73;;;9.20;92.20;;;;;;4963049;28;20031;-70
2021/04/30 07:13:16;;;;;;;22.75;18.10;;;9.20;92.20;;;;;;4963630;28;20058;-70
2021/04/30 07:15:42;;;;;;;21.67;17.67;;;9.30;92.50;;;;;;4962392;28;20074;-70
2021/04/30 07:18:07;;;;;;;19.77;15.80;;;9.40;92.90;;;;;;4961903;28;20069;-69
2021/04/30 07:20:36;;;;;;;24.00;18.58;;;9.60;92.60;;;;;;4964293;28;20513;-70
2021/04/30 07:23:03;;;;;;;24.85;18.40;;;9.60;92.40;;;;;;4977458;28;20537;-70
2021/04/30 07:25:32;;;;;;;24.38;18.67;;;9.60;91.20;;;;;;4961988;28;20043;-70
2021/04/30 07:27:58;;;;;;;27.48;21.13;;;9.60;91.90;;;;;;4963232;28;20027;-70
2021/04/30 07:30:24;;;;;;;25.48;20.30;;;9.60;92.40;;;;;;4960607;28;20110;-70
2021/04/30 07:32:50;;;;;;;23.85;19.33;;;9.60;92.50;;;;;;4961933;28;20050;-70
2021/04/30 07:35:16;;;;;;;23.52;19.40;;;9.60;92.10;;;;;;4962595;28;20027;-70
2021/04/30 07:37:41;;;;;;;23.65;17.55;;;9.60;92.10;;;;;;4961663;28;21070;-70
2021/04/30 07:40:09;;;;;;;22.00;17.25;;;9.60;92.00;;;;;;4977421;28;20039;-71
2021/04/30 07:42:35;;;;;;;21.40;17.35;;;9.70;91.40;;;;;;4963485;28;20485;-70
2021/04/30 07:45:03;;;;;;;25.50;19.90;;;9.70;91.60;;;;;;4962571;28;20093;-70
2021/04/30 07:47:29;;;;;;;23.17;18.52;;;9.70;92.00;;;;;;4960385;28;20090;-70
2021/04/30 07:49:56;;;;;;;20.88;16.45;;;9.70;90.90;;;;;;4959701;28;20127;-71
2021/04/30 07:52:21;;;;;;;21.42;17.33;;;9.70;90.80;;;;;;4961875;28;20027;-70
2021/04/30 07:54:47;;;;;;;21.80;17.90;;;9.60;90.60;;;;;;4960697;28;20031;-70
2021/04/30 07:57:13;;;;;;;19.50;15.52;;;9.60;90.40;;;;;;4960532;28;20023;-70
2021/04/30 07:59:38;;;;;;;20.55;16.38;;;9.60;90.70;;;;;;4963296;28;20034;-70
2021/04/30 08:02:04;;;;;;;17.65;14.80;;;9.70;90.80;;;;;;4961223;28;20060;-70
2021/04/30 08:04:30;;;;;;;18.05;14.90;;;9.70;91.30;;;;;;4961646;28;20117;-70
2021/04/30 08:06:56;;;;;;;21.48;17.02;;;9.70;91.70;;;;;;4959000;28;20334;-70
2021/04/30 08:09:22;;;;;;;18.77;14.27;;;9.70;90.40;;;;;;4995417;23;20043;-75
2021/04/30 08:11:48;;;;;;;22.30;16.48;;;9.70;90.80;;;;;;4983005;28;20058;-71
2021/04/30 08:14:14;;;;;;;21.13;15.98;;;9.70;90.90;;;;;;4983021;28;20041;-70
2021/04/30 08:16:42;;;;;;;18.55;14.63;;;9.70;91.70;;;;;;4979341;28;20123;-71
2021/04/30 08:19:09;;;;;;;16.58;13.57;;;9.70;91.80;;;;;;4972095;28;20122;-72
2021/04/30 08:21:35;;;;;;;19.95;14.70;;;9.70;91.50;;;;;;4957081;28;20042;-71
2021/04/30 08:24:03;;;;;;;18.98;14.15;;;9.70;90.60;;;;;;4958789;28;20027;-71
2021/04/30 08:26:30;;;;;;;18.85;13.48;;;9.70;91.00;;;;;;4959719;28;20137;-72
2021/04/30 08:28:56;;;;;;;16.90;13.35;;;9.80;91.20;;;;;;4961495;28;20548;-72
2021/04/30 08:31:22;;;;;;;14.80;12.82;;;9.80;91.10;;;;;;4960701;28;20030;-72
2021/04/30 08:33:50;;;;;;;17.83;14.73;;;9.80;91.20;;;;;;4959768;28;20110;-72
2021/04/30 08:36:16;;;;;;;18.77;15.35;;;9.90;91.00;;;;;;4962309;28;20485;-72
2021/04/30 08:38:42;;;;;;;16.35;13.65;;;9.90;91.30;;;;;;4960980;28;20031;-72
2021/04/30 08:41:08;;;;;;;15.30;11.93;;;10.00;90.60;;;;;;4964934;28;20094;-72
2021/04/30 08:43:37;;;;;;;17.15;13.50;;;9.90;90.30;;;;;;4961381;28;20039;-72
2021/04/30 08:46:04;;;;;;;16.25;11.70;;;10.00;89.30;;;;;;4961606;28;20063;-72
2021/04/30 08:48:32;;;;;;;18.05;15.02;;;10.00;89.90;;;;;;4960194;28;20110;-72
2021/04/30 08:51:01;;;;;;;20.88;16.42;;;10.00;88.60;;;;;;4960118;28;20089;-72
2021/04/30 08:53:27;;;;;;;18.25;15.23;;;10.00;88.80;;;;;;4966422;28;20113;-72
2021/04/30 08:55:54;;;;;;;16.10;13.95;;;10.10;90.80;;;;;;4976474;28;20058;-71
2021/04/30 08:58:26;;;;;;;17.52;14.98;;;10.10;89.70;;;;;;4969546;28;20416;-72
2021/04/30 09:00:56;;;;;;;17.80;14.57;;;10.10;88.70;;;;;;4965789;28;20271;-71
2021/04/30 09:03:22;;;;;;;16.27;13.05;;;10.10;88.60;;;;;;4959541;28;20555;-71
2021/04/30 09:05:55;;;;;;;19.27;14.25;;;10.20;89.60;;;;;;4959478;28;20042;-71
2021/04/30 09:08:23;;;;;;;17.58;13.80;;;10.20;87.70;;;;;;4959380;28;20031;-72
2021/04/30 09:10:50;;;;;;;17.13;13.93;;;10.20;90.40;;;;;;4959132;28;20031;-71
2021/04/30 09:13:21;;;;;;;17.33;13.90;;;10.30;91.10;;;;;;4958246;28;20429;-73
2021/04/30 09:16:01;;;;;;;16.63;12.77;;;10.40;91.10;;;;;;4959118;28;20035;-74
2021/04/30 09:18:28;;;;;;;14.07;11.70;;;10.40;88.70;;;;;;4959572;28;20457;-73
2021/04/30 09:21:04;;;;;;;14.02;11.98;;;10.50;90.50;;;;;;4958977;28;20043;-72
2021/04/30 09:23:40;;;;;;;13.27;10.95;;;10.50;88.30;;;;;;4960505;28;20039;-72
2021/04/30 09:26:30;;;;;;;12.82;10.40;;;10.60;89.40;;;;;;4961095;28;20031;-70
2021/04/30 09:29:03;;;;;;;12.73;10.85;;;10.70;89.90;;;;;;4955655;28;20027;-72
2021/04/30 09:31:48;;;;;;;14.23;10.90;;;10.80;89.60;;;;;;4962425;28;20037;-71
2021/04/30 09:34:15;;;;;;;11.48;10.13;;;10.90;83.00;;;;;;4963174;28;20023;-71
2021/04/30 09:37:13;;;;;;;11.02;9.23;;;11.00;86.10;;;;;;4980840;28;20114;-71
2021/04/30 09:40:03;;;;;;;11.43;9.75;;;11.10;87.30;;;;;;4962839;28;20041;-72
2021/04/30 09:42:31;;;;;;;10.40;9.25;;;11.20;88.30;;;;;;4963417;28;20046;-73
2021/04/30 09:45:03;;;;;;;11.57;8.82;;;11.10;86.40;;;;;;4965580;28;20085;-73
2021/04/30 09:47:31;;;;;;;11.60;9.32;;;11.10;85.00;;;;;;4964573;28;20037;-72
2021/04/30 09:49:59;;;;;;;9.90;8.52;;;10.90;83.30;;;;;;4964028;28;20481;-72
2021/04/30 09:52:26;;;;;;;8.35;7.25;;;10.90;84.70;;;;;;4963113;28;20410;-72
2021/04/30 09:54:54;;;;;;;10.60;8.65;;;10.90;86.10;;;;;;4961850;28;20023;-71
2021/04/30 09:57:22;;;;;;;9.75;8.23;;;10.90;87.70;;;;;;4960262;28;20062;-70
2021/04/30 10:00:05;;;;;;;9.52;7.95;;;10.90;86.70;;;;;;4960674;28;20031;-71
2021/04/30 10:02:33;;;;;;;9.68;8.68;;;10.90;86.20;;;;;;4965212;28;20511;-71
2021/04/30 10:05:11;;;;;;;9.48;8.43;;;10.90;82.50;;;;;;4964926;28;20032;-71
2021/04/30 10:07:38;;;;;;;8.13;6.90;;;11.10;85.10;;;;;;4964094;28;20035;-71
2021/04/30 10:10:19;;;;;;;9.50;7.88;;;11.20;84.00;;;;;;4963204;28;20041;-70
2021/04/30 10:12:46;;;;;;;10.18;8.35;;;11.40;83.60;;;;;;4962441;28;20696;-71
2021/04/30 10:15:20;;;;;;;10.38;7.30;;;11.40;85.20;;;;;;4962150;28;20059;-71
2021/04/30 10:17:48;;;;;;;8.32;7.28;;;11.50;82.60;;;;;;4965263;28;20028;-70
2021/04/30 10:20:16;;;;;;;9.75;8.50;;;11.50;83.90;;;;;;4963292;28;20023;-70
2021/04/30 10:22:46;;;;;;;10.13;7.97;;;11.60;81.60;;;;;;4968757;28;20051;-70
2021/04/30 10:25:17;;;;;;;8.18;7.22;;;11.60;82.60;;;;;;4966383;28;20050;-70
2021/04/30 10:27:44;;;;;;;8.88;7.38;;;11.50;84.00;;;;;;4977876;28;20027;-70
2021/04/30 10:30:41;;;;;;;8.60;7.22;;;11.50;82.90;;;;;;4963456;28;20059;-70
2021/04/30 10:33:45;;;;;;;8.73;7.45;;;11.50;85.00;;;;;;4965215;28;20039;-71
2021/04/30 10:36:19;;;;;;;9.00;7.85;;;11.60;84.70;;;;;;4961183;28;20031;-71
2021/04/30 10:38:47;;;;;;;7.72;6.93;;;11.60;82.00;;;;;;4981113;28;20373;-72
2021/04/30 10:41:14;;;;;;;7.90;6.57;;;11.60;81.20;;;;;;4978258;28;20035;-71
2021/04/30 10:43:40;;;;;;;9.00;6.38;;;11.70;81.30;;;;;;4960166;28;20062;-71
2021/04/30 10:46:15;;;;;;;8.00;6.18;;;11.80;79.20;;;;;;4963484;28;20024;-71
2021/04/30 10:49:11;;;;;;;7.60;6.78;;;11.90;78.90;;;;;;4963668;28;20027;-71
2021/04/30 10:51:39;;;;;;;6.55;5.95;;;12.10;72.50;;;;;;4962668;28;20289;-70
2021/04/30 10:54:23;;;;;;;6.95;6.28;;;12.20;71.40;;;;;;4963490;28;20106;-72
2021/04/30 10:57:06;;;;;;;6.57;5.65;;;12.20;72.90;;;;;;4963512;28;20066;-72
2021/04/30 10:59:40;;;;;;;9.05;7.15;;;12.20;75.50;;;;;;4963435;28;20032;-71
2021/04/30 11:02:09;;;;;;;9.25;7.20;;;12.30;70.00;;;;;;4964734;28;20027;-71
2021/04/30 11:04:35;;;;;;;9.80;8.30;;;12.10;72.30;;;;;;4961532;28;20026;-70
2021/04/30 11:07:03;;;;;;;8.80;7.60;;;12.10;74.10;;;;;;4965166;28;20035;-70
2021/04/30 11:09:39;;;;;;;12.60;9.70;;;12.00;75.20;;;;;;4967972;28;20071;-70
2021/04/30 11:12:17;;;;;;;9.02;7.95;;;11.90;75.40;;;;;;4963666;28;20082;-71
2021/04/30 11:15:06;;;;;;;9.93;8.80;;;11.80;76.40;;;;;;4964506;28;20098;-71
2021/04/30 11:17:49;;;;;;;10.88;8.75;;;11.70;79.90;;;;;;4973088;28;20574;-72
2021/04/30 11:20:17;;;;;;;8.18;7.32;;;11.60;75.70;;;;;;4962908;28;20026;-71
2021/04/30 11:23:13;;;;;;;10.27;7.82;;;11.40;76.40;;;;;;4960059;28;20114;-71
2021/04/30 11:28:35;;;;;;;8.35;7.45;;;11.30;77.00;;;;;;4965321;28;20035;-75
2021/04/30 11:31:14;;;;;;;10.55;8.15;;;11.20;76.30;;;;;;4965376;28;20047;-77
2021/04/30 11:34:12;;;;;;;9.35;6.93;;;11.20;76.70;;;;;;4973570;28;20019;-73
2021/04/30 11:36:43;;;;;;;9.48;6.68;;;11.10;76.60;;;;;;4966363;28;20062;-74
2021/04/30 11:39:19;;;;;;;7.50;6.50;;;11.10;77.30;;;;;;4961669;28;20039;-75
2021/04/30 11:41:55;;;;;;;10.05;9.02;;;11.10;78.90;;;;;;4967029;28;20432;-74
2021/04/30 11:44:21;;;;;;;9.00;7.93;;;11.10;79.10;;;;;;4959436;28;20055;-74
2021/04/30 11:47:02;;;;;;;10.13;7.90;;;11.20;77.90;;;;;;4962445;28;20405;-73
2021/04/30 11:49:29;;;;;;;9.43;7.37;;;11.30;77.90;;;;;;4962319;28;20035;-74
2021/04/30 11:51:55;;;;;;;7.75;6.72;;;11.30;77.30;;;;;;4963542;28;20030;-73
2021/04/30 11:54:27;;;;;;;8.60;6.60;;;11.30;76.70;;;;;;4963638;28;20015;-73
2021/04/30 11:57:02;;;;;;;9.05;7.57;;;11.40;77.90;;;;;;4969721;28;20034;-75
2021/04/30 11:59:28;;;;;;;9.80;7.88;;;11.40;77.60;;;;;;4965182;28;20026;-74
2021/04/30 12:02:04;;;;;;;9.27;8.00;;;11.50;79.60;;;;;;4966226;28;20043;-72
2021/04/30 12:04:51;;;;;;;7.57;6.63;;;11.50;80.70;;;;;;4967246;28;20109;-74
2021/04/30 12:07:18;;;;;;;8.48;7.10;;;11.60;81.30;;;;;;4970260;28;20110;-73
2021/04/30 12:09:45;;;;;;;7.45;6.75;;;11.70;79.30;;;;;;4963256;28;20369;-74
2021/04/30 12:12:11;;;;;;;9.30;8.30;;;11.80;80.30;;;;;;4960090;28;20499;-75
2021/04/30 12:15:04;;;;;;;11.07;9.48;;;11.90;76.30;;;;;;4963896;28;20024;-73
2021/04/30 12:17:41;;;;;;;21.35;11.77;;;12.00;73.30;;;;;;4973858;28;20027;-73
2021/04/30 12:20:24;;;;;;;16.20;11.30;;;12.20;73.40;;;;;;4961642;28;20058;-73
2021/04/30 12:22:55;;;;;;;19.88;12.82;;;12.60;73.00;;;;;;4978657;28;20031;-72
2021/04/30 12:25:27;;;;;;;15.95;9.27;;;12.70;72.50;;;;;;4965165;28;20026;-72
2021/04/30 12:28:12;;;;;;;17.95;11.25;;;12.90;72.30;;;;;;4962574;28;20042;-73
2021/04/30 12:30:38;;;;;;;14.38;8.40;;;13.10;70.10;;;;;;4962697;28;20489;-70
2021/04/30 12:33:04;;;;;;;12.55;8.68;;;13.20;69.90;;;;;;4961310;28;20043;-71
2021/04/30 12:35:30;;;;;;;11.68;8.50;;;13.30;70.50;;;;;;4963638;28;20094;-71
2021/04/30 12:37:56;;;;;;;8.73;7.18;;;13.40;68.20;;;;;;4980449;28;20031;-72
2021/04/30 12:40:29;;;;;;;10.70;7.38;;;13.40;67.30;;;;;;4959590;28;20394;-71
2021/04/30 12:42:57;;;;;;;8.95;6.68;;;13.40;66.90;;;;;;4959418;28;20035;-74
2021/04/30 12:45:24;;;;;;;7.82;6.50;;;13.40;66.80;;;;;;4962868;28;20051;-74
2021/04/30 12:47:52;;;;;;;7.95;6.30;;;13.40;68.50;;;;;;4968704;28;20035;-71